Time;durP1;ratioP1;P1;durP2;ratioP2;P2;SDS_P1;SDS_P2;PMS_P1;PMS_P2;Temp;Humidity;BMP_temperature;BMP_pressure;BME280_temperature;BME280_humidity;BME280_pressure;Samples;Min_cycle;Max_cycle;Signal;HPM_P1;HPM_P2
2021/05/15 00:00:44;;;;;;;0.20;0.20;;;;;;;10.99;88.17;99167.56;5106233;28;20026;-65
2021/05/15 00:03:09;;;;;;;0.30;0.30;;;;;;;10.87;88.38;99177.41;5106034;28;20080;-65
2021/05/15 00:05:35;;;;;;;0.30;0.30;;;;;;;10.85;88.56;99171.41;5106045;28;20043;-64
2021/05/15 00:08:03;;;;;;;0.20;0.20;;;;;;;10.82;88.68;99162.84;5105902;28;20019;-67
2021/05/15 00:10:29;;;;;;;0.30;0.30;;;;;;;10.88;88.46;99167.88;5105567;28;20024;-65
2021/05/15 00:12:55;;;;;;;0.20;0.20;;;;;;;10.84;88.72;99166.25;5121445;28;20420;-66
2021/05/15 00:15:20;;;;;;;0.30;0.30;;;;;;;10.90;88.42;99166.94;5105480;28;20016;-65
2021/05/15 00:17:45;;;;;;;0.30;0.30;;;;;;;10.88;88.42;99167.88;5105719;28;20027;-65
2021/05/15 00:20:15;;;;;;;0.28;0.28;;;;;;;10.81;88.80;99156.84;5121466;28;20031;-67
2021/05/15 00:22:41;;;;;;;0.30;0.30;;;;;;;10.82;88.66;99158.53;5105770;28;20024;-66
2021/05/15 00:25:08;;;;;;;0.68;0.68;;;;;;;10.79;88.75;99153.41;5105467;28;20035;-65
2021/05/15 00:27:34;;;;;;;0.30;0.30;;;;;;;10.81;88.71;99159.44;5105201;28;20028;-65
2021/05/15 00:30:00;;;;;;;0.25;0.25;;;;;;;10.78;88.79;99167.31;5105742;28;20075;-66
2021/05/15 00:32:25;;;;;;;0.25;0.25;;;;;;;10.80;88.82;99159.47;5105336;28;20028;-64
2021/05/15 00:34:51;;;;;;;0.20;0.20;;;;;;;10.81;88.48;99146.44;5105512;28;20032;-64
2021/05/15 00:37:17;;;;;;;0.20;0.20;;;;;;;10.76;89.03;99156.97;5105429;28;20031;-70
2021/05/15 00:39:43;;;;;;;0.30;0.30;;;;;;;10.81;88.30;99143.84;5105249;28;20248;-70
2021/05/15 00:42:09;;;;;;;0.30;0.30;;;;;;;10.86;87.67;99141.94;5104772;28;20507;-73
2021/05/15 00:44:44;;;;;;;0.30;0.30;;;;;;;10.89;87.37;99139.25;5105350;28;20083;-73
2021/05/15 00:47:17;;;;;;;0.25;0.25;;;;;;;10.76;88.03;99135.34;5105024;28;20039;-74
2021/05/15 00:49:44;;;;;;;0.20;0.20;;;;;;;10.76;88.05;99136.19;5103723;28;20048;-74
2021/05/15 00:52:10;;;;;;;0.20;0.20;;;;;;;10.81;87.51;99140.41;5104901;28;20334;-73
2021/05/15 00:54:37;;;;;;;0.20;0.20;;;;;;;10.71;87.89;99140.69;5103419;28;20393;-73
2021/05/15 00:57:04;;;;;;;0.30;0.30;;;;;;;10.63;88.62;99140.91;5104244;28;20028;-74
2021/05/15 00:59:30;;;;;;;0.82;0.82;;;;;;;10.62;88.73;99136.59;5104572;28;20088;-73
2021/05/15 01:01:55;;;;;;;0.30;0.30;;;;;;;10.65;88.87;99133.91;5104534;28;20027;-73
2021/05/15 01:04:20;;;;;;;0.30;0.30;;;;;;;10.61;88.89;99134.03;5104806;28;20031;-73
2021/05/15 01:06:46;;;;;;;0.30;0.30;;;;;;;10.60;88.91;99128.00;5104252;28;20119;-73
2021/05/15 01:09:11;;;;;;;0.20;0.20;;;;;;;10.59;89.20;99131.47;5103722;28;20028;-72
2021/05/15 01:11:36;;;;;;;0.20;0.20;;;;;;;10.61;89.17;99128.84;5104296;28;20024;-73
2021/05/15 01:14:03;;;;;;;0.35;0.35;;;;;;;10.60;89.08;99128.00;5104560;28;20023;-74
2021/05/15 01:16:31;;;;;;;0.30;0.30;;;;;;;10.61;89.14;99129.72;5104435;28;20028;-74
2021/05/15 01:18:57;;;;;;;0.20;0.20;;;;;;;10.62;89.28;99130.56;5104590;28;20024;-74
2021/05/15 01:21:22;;;;;;;0.20;0.20;;;;;;;10.87;88.07;99119.44;5104170;28;20141;-74
2021/05/15 01:23:48;;;;;;;0.20;0.20;;;;;;;10.71;88.78;99119.91;5104471;28;20032;-74
2021/05/15 01:26:18;;;;;;;0.20;0.20;;;;;;;10.77;88.48;99126.66;5103965;28;20034;-73
2021/05/15 01:28:45;;;;;;;0.20;0.20;;;;;;;10.73;88.96;99122.47;5104311;28;20019;-72
2021/05/15 01:31:12;;;;;;;1.27;1.08;;;;;;;10.79;88.33;99119.69;5104150;28;20496;-72
2021/05/15 01:33:37;;;;;;;0.20;0.20;;;;;;;10.71;88.95;99114.72;5104263;28;20054;-71
2021/05/15 01:36:04;;;;;;;0.30;0.30;;;;;;;10.80;88.33;99110.97;5104307;28;20020;-71
2021/05/15 01:38:29;;;;;;;0.30;0.30;;;;;;;10.69;88.89;99111.31;5119768;28;20026;-70
2021/05/15 01:41:04;;;;;;;0.20;0.20;;;;;;;10.73;89.09;99106.88;5104009;28;20044;-70
2021/05/15 01:43:29;;;;;;;0.20;0.20;;;;;;;10.90;87.76;99099.44;5104193;28;20051;-70
2021/05/15 01:45:55;;;;;;;0.30;0.30;;;;;;;10.97;87.29;99096.63;5103773;28;20459;-70
2021/05/15 01:48:20;;;;;;;0.35;0.35;;;;;;;10.85;87.96;99092.66;5119704;28;20027;-70
2021/05/15 01:51:00;;;;;;;0.30;0.30;;;;;;;11.03;86.77;99096.44;5103653;28;20040;-69
2021/05/15 01:53:26;;;;;;;0.30;0.30;;;;;;;10.84;87.67;99094.44;5103936;28;20023;-67
2021/05/15 01:55:53;;;;;;;0.47;0.47;;;;;;;10.75;88.00;99095.53;5103731;28;20028;-67
2021/05/15 01:58:18;;;;;;;0.32;0.32;;;;;;;10.93;87.04;99092.44;5103547;28;20043;-67
2021/05/15 02:00:44;;;;;;;0.30;0.30;;;;;;;10.73;87.69;99099.97;5103713;28;20023;-66
2021/05/15 02:03:09;;;;;;;0.30;0.30;;;;;;;10.77;87.59;99108.47;5104067;28;20024;-66
2021/05/15 02:05:34;;;;;;;0.22;0.22;;;;;;;10.77;87.23;99090.31;5103795;28;20047;-65
2021/05/15 02:08:00;;;;;;;0.30;0.30;;;;;;;10.72;87.60;99098.22;5103860;28;20383;-65
2021/05/15 02:10:25;;;;;;;39.75;2.17;;;;;;;10.68;87.83;99098.38;5103760;28;20020;-65
2021/05/15 02:12:50;;;;;;;0.30;0.30;;;;;;;10.54;88.50;99091.88;5103395;28;20387;-65
2021/05/15 02:15:16;;;;;;;0.30;0.30;;;;;;;10.69;87.60;99081.94;5103470;28;20044;-64
2021/05/15 02:17:41;;;;;;;0.20;0.20;;;;;;;10.55;88.47;99093.56;5103465;28;20026;-64
2021/05/15 02:20:07;;;;;;;0.30;0.30;;;;;;;10.58;88.42;99080.50;5106441;28;20023;-65
2021/05/15 02:22:33;;;;;;;0.20;0.20;;;;;;;10.52;88.33;99086.72;5107685;28;20107;-65
2021/05/15 02:24:58;;;;;;;0.30;0.30;;;;;;;10.50;88.67;99080.72;5107506;28;20031;-65
2021/05/15 02:27:23;;;;;;;0.30;0.30;;;;;;;10.46;88.81;99075.63;5107426;28;20028;-66
2021/05/15 02:29:49;;;;;;;0.60;0.60;;;;;;;10.60;88.67;99076.09;5107745;28;20039;-65
2021/05/15 02:32:14;;;;;;;0.30;0.30;;;;;;;10.50;88.75;99080.72;5107460;28;20016;-67
2021/05/15 02:34:39;;;;;;;0.60;0.60;;;;;;;10.51;88.58;99077.22;5107563;28;20020;-67
2021/05/15 02:37:05;;;;;;;0.30;0.30;;;;;;;10.48;88.75;99079.06;5107620;28;20059;-68
2021/05/15 02:39:30;;;;;;;0.30;0.30;;;;;;;10.54;88.50;99084.06;5107445;28;20035;-68
2021/05/15 02:41:55;;;;;;;0.30;0.30;;;;;;;10.49;88.77;99076.44;5107102;28;20080;-68
2021/05/15 02:44:21;;;;;;;0.35;0.35;;;;;;;10.44;89.13;99075.69;5107579;28;20024;-69
2021/05/15 02:46:46;;;;;;;0.20;0.20;;;;;;;10.54;88.60;99084.91;5107034;28;20032;-69
2021/05/15 02:49:11;;;;;;;0.30;0.30;;;;;;;10.49;88.81;99071.25;5107124;28;20043;-68
2021/05/15 02:51:37;;;;;;;0.20;0.20;;;;;;;10.53;88.46;99075.44;5107228;28;20032;-69
2021/05/15 02:54:03;;;;;;;0.30;0.30;;;;;;;10.50;88.48;99077.25;5107344;28;20095;-69
2021/05/15 02:56:28;;;;;;;0.25;0.25;;;;;;;10.45;88.72;99073.94;5105680;28;20034;-70
2021/05/15 02:58:53;;;;;;;0.20;0.20;;;;;;;10.40;88.62;99074.91;5107213;28;20043;-69
2021/05/15 03:01:19;;;;;;;0.30;0.30;;;;;;;10.41;88.86;99078.38;5106973;28;20012;-70
2021/05/15 03:03:45;;;;;;;0.30;0.30;;;;;;;10.44;88.88;99072.22;5122766;28;20077;-69
2021/05/15 03:06:11;;;;;;;0.20;0.20;;;;;;;10.48;88.62;99076.47;5106971;28;20028;-69
2021/05/15 03:08:36;;;;;;;0.30;0.30;;;;;;;10.36;89.05;99075.06;5106836;28;20434;-70
2021/05/15 03:11:02;;;;;;;0.43;0.43;;;;;;;10.38;89.15;99074.09;5106548;28;20036;-69
2021/05/15 03:13:28;;;;;;;0.20;0.20;;;;;;;10.40;88.95;99074.91;5106365;28;20031;-70
2021/05/15 03:15:53;;;;;;;0.20;0.20;;;;;;;10.46;88.88;99073.03;5106706;28;20138;-70
2021/05/15 03:18:18;;;;;;;0.30;0.30;;;;;;;10.51;88.20;99066.00;5106604;28;20043;-70
2021/05/15 03:20:44;;;;;;;0.30;0.30;;;;;;;10.44;88.46;99073.09;5106461;28;20381;-69
2021/05/15 03:23:09;;;;;;;0.30;0.30;;;;;;;10.38;88.75;99066.31;5106692;28;20020;-70
2021/05/15 03:25:35;;;;;;;1.67;1.58;;;;;;;10.40;88.74;99061.94;5106584;28;20039;-70
2021/05/15 03:28:00;;;;;;;0.30;0.30;;;;;;;10.51;88.09;99063.41;5106108;28;20028;-70
2021/05/15 03:30:25;;;;;;;0.40;0.40;;;;;;;10.41;88.51;99065.41;5105485;28;20492;-70
2021/05/15 03:32:51;;;;;;;0.30;0.30;;;;;;;10.33;89.01;99057.84;5106113;28;20028;-70
2021/05/15 03:35:19;;;;;;;0.30;0.30;;;;;;;10.29;89.13;99051.03;5106191;28;20032;-71
2021/05/15 03:37:44;;;;;;;0.30;0.30;;;;;;;10.27;89.43;99055.44;5106211;28;20380;-70
2021/05/15 03:40:10;;;;;;;0.20;0.20;;;;;;;10.41;88.68;99050.66;5106170;28;20494;-69
2021/05/15 03:42:36;;;;;;;0.35;0.35;;;;;;;10.33;89.07;99051.78;5105797;28;20042;-70
2021/05/15 03:45:01;;;;;;;0.20;0.20;;;;;;;10.33;88.84;99055.25;5106339;28;20024;-70
2021/05/15 03:47:27;;;;;;;0.20;0.20;;;;;;;10.38;88.68;99050.75;5105989;28;20410;-70
2021/05/15 03:49:52;;;;;;;0.30;0.30;;;;;;;10.38;88.77;99044.72;5105979;28;20069;-70
2021/05/15 03:52:18;;;;;;;0.30;0.30;;;;;;;10.38;88.76;99045.56;5105986;28;20028;-71
2021/05/15 03:54:43;;;;;;;0.20;0.20;;;;;;;10.40;88.30;99051.56;5106173;28;20028;-73
2021/05/15 03:57:08;;;;;;;0.63;0.63;;;;;;;10.28;88.87;99044.16;5105398;28;20496;-72
2021/05/15 03:59:34;;;;;;;0.25;0.25;;;;;;;10.39;88.26;99051.59;5105992;28;20032;-73
2021/05/15 04:01:59;;;;;;;0.30;0.30;;;;;;;10.34;88.60;99045.69;5105814;28;20050;-72
2021/05/15 04:04:24;;;;;;;0.20;0.20;;;;;;;10.20;89.52;99038.31;5104548;28;20071;-74
2021/05/15 04:06:50;;;;;;;0.30;0.30;;;;;;;10.30;89.10;99047.56;5105601;28;20024;-75
2021/05/15 04:09:15;;;;;;;0.20;0.20;;;;;;;10.24;89.60;99047.72;5105928;28;20028;-75
2021/05/15 04:11:40;;;;;;;0.22;0.22;;;;;;;10.24;89.81;99047.72;5105575;28;20012;-76
2021/05/15 04:19:27;;;;;;;1.10;1.02;;;;;;;10.12;90.35;99044.59;5106009;28;20024;-75
2021/05/15 04:21:53;;;;;;;0.30;0.30;;;;;;;10.12;90.45;99044.59;5105785;28;20456;-76
2021/05/15 04:24:18;;;;;;;0.20;0.20;;;;;;;10.12;90.59;99054.97;5104448;28;20036;-77
2021/05/15 04:26:44;;;;;;;0.30;0.30;;;;;;;10.15;90.41;99057.47;5105510;28;20024;-77
2021/05/15 04:29:09;;;;;;;0.30;0.30;;;;;;;10.12;90.32;99051.50;5105723;28;20020;-75
2021/05/15 04:31:35;;;;;;;0.20;0.20;;;;;;;10.10;90.16;99050.69;5104347;28;20455;-75
2021/05/15 04:34:00;;;;;;;0.30;0.30;;;;;;;10.09;90.49;99044.69;5105762;28;20491;-74
2021/05/15 04:36:25;;;;;;;0.30;0.30;;;;;;;10.01;90.20;99047.50;5105452;28;20111;-75
2021/05/15 04:38:52;;;;;;;0.30;0.30;;;;;;;9.97;90.36;99050.22;5105407;28;20376;-78
2021/05/15 04:41:21;;;;;;;0.22;0.22;;;;;;;9.98;90.40;99050.19;5105213;28;20026;-75
2021/05/15 04:43:46;;;;;;;0.30;0.30;;;;;;;9.93;90.16;99046.84;5105272;28;20028;-75
2021/05/15 04:46:13;;;;;;;0.20;0.20;;;;;;;9.92;90.10;99048.59;5105268;28;20030;-75
2021/05/15 04:48:39;;;;;;;0.30;0.30;;;;;;;9.90;90.26;99052.94;5105270;28;20020;-74
2021/05/15 04:51:05;;;;;;;0.20;0.20;;;;;;;9.90;90.15;99054.72;5104923;28;20047;-73
2021/05/15 04:53:31;;;;;;;0.30;0.30;;;;;;;9.86;90.42;99056.53;5105156;28;20044;-73
2021/05/15 04:55:56;;;;;;;0.30;0.30;;;;;;;9.92;90.19;99055.50;5104919;28;20125;-74
2021/05/15 04:58:21;;;;;;;0.30;0.30;;;;;;;9.89;90.47;99053.84;5104836;28;20024;-74
2021/05/15 05:00:47;;;;;;;0.30;0.30;;;;;;;9.95;90.44;99055.44;5105063;28;20107;-72
2021/05/15 05:03:16;;;;;;;0.30;0.30;;;;;;;9.94;90.56;99058.06;5086794;28;20051;-73
2021/05/15 05:05:41;;;;;;;0.20;0.20;;;;;;;9.97;90.45;99055.41;5104836;28;20024;-72
2021/05/15 05:08:06;;;;;;;0.30;0.30;;;;;;;9.95;90.55;99057.19;5104862;28;20062;-73
2021/05/15 05:10:32;;;;;;;0.30;0.30;;;;;;;10.00;90.36;99063.09;5104804;28;20031;-73
2021/05/15 05:12:57;;;;;;;0.30;0.30;;;;;;;9.97;90.29;99066.59;5104422;28;20020;-73
2021/05/15 05:15:23;;;;;;;0.20;0.20;;;;;;;10.00;90.23;99056.16;5104668;28;20092;-73
2021/05/15 05:17:48;;;;;;;0.20;0.20;;;;;;;10.02;90.33;99067.34;5104591;28;20051;-73
2021/05/15 05:20:14;;;;;;;0.30;0.30;;;;;;;10.00;90.33;99070.88;5104743;28;20031;-74
2021/05/15 05:22:39;;;;;;;0.30;0.30;;;;;;;10.01;90.28;99069.97;5104518;28;20023;-73
2021/05/15 05:25:07;;;;;;;0.30;0.30;;;;;;;9.96;90.34;99070.09;5104328;28;20401;-73
2021/05/15 05:27:32;;;;;;;0.30;0.30;;;;;;;9.96;90.35;99071.84;5104152;28;20035;-73
2021/05/15 05:29:57;;;;;;;0.20;0.20;;;;;;;9.95;90.48;99070.16;5104681;28;20020;-74
2021/05/15 05:32:23;;;;;;;0.20;0.20;;;;;;;9.91;90.44;99064.19;5104240;28;20020;-74
2021/05/15 05:34:48;;;;;;;0.30;0.30;;;;;;;9.89;90.39;99060.78;5104520;28;20024;-74
2021/05/15 05:37:14;;;;;;;0.30;0.30;;;;;;;9.86;90.43;99066.91;5104211;28;20016;-72
2021/05/15 05:39:40;;;;;;;0.30;0.30;;;;;;;9.91;90.45;99067.63;5104137;28;20020;-73
2021/05/15 05:42:06;;;;;;;0.30;0.30;;;;;;;9.93;90.13;99067.59;5103944;28;20032;-72
2021/05/15 05:44:31;;;;;;;0.30;0.30;;;;;;;9.86;90.18;99058.25;5104273;28;20485;-73
2021/05/15 05:46:57;;;;;;;0.30;0.30;;;;;;;9.84;90.62;99070.44;5103860;28;20020;-73
2021/05/15 05:49:23;;;;;;;0.30;0.30;;;;;;;9.89;90.63;99071.13;5104187;28;20028;-73
2021/05/15 05:51:49;;;;;;;0.40;0.40;;;;;;;9.94;90.23;99073.59;5119507;28;20040;-72
2021/05/15 05:54:14;;;;;;;0.20;0.20;;;;;;;9.82;90.74;99067.03;5103499;28;20016;-73
2021/05/15 05:56:40;;;;;;;0.25;0.25;;;;;;;9.81;90.58;99071.34;5103777;28;20153;-74
2021/05/15 05:59:05;;;;;;;0.30;0.30;;;;;;;9.76;90.59;99075.84;5104176;28;20076;-73
2021/05/15 06:01:30;;;;;;;0.30;0.30;;;;;;;9.76;90.64;99075.84;5103919;28;20028;-73
2021/05/15 06:03:56;;;;;;;0.25;0.25;;;;;;;9.76;90.71;99076.66;5104009;28;20023;-73
2021/05/15 06:06:21;;;;;;;0.30;0.30;;;;;;;9.74;90.74;99078.47;5103785;28;20450;-74
2021/05/15 06:08:46;;;;;;;0.20;0.20;;;;;;;9.80;90.63;99074.84;5103887;28;20023;-73
2021/05/15 06:11:12;;;;;;;0.30;0.30;;;;;;;9.76;90.94;99068.06;5103748;28;20024;-73
2021/05/15 06:13:38;;;;;;;0.25;0.25;;;;;;;9.82;91.42;99083.44;5103508;28;20035;-73
2021/05/15 06:16:04;;;;;;;0.20;0.20;;;;;;;9.81;90.74;99081.72;5103639;28;20048;-73
2021/05/15 06:18:29;;;;;;;0.30;0.30;;;;;;;9.79;90.96;99080.94;5103602;28;20084;-75
2021/05/15 06:20:55;;;;;;;0.30;0.30;;;;;;;9.82;90.80;99077.41;5103866;28;20095;-74
2021/05/15 06:23:21;;;;;;;0.32;0.32;;;;;;;9.84;90.88;99081.63;5103685;28;20048;-75
2021/05/15 06:25:46;;;;;;;0.30;0.30;;;;;;;9.90;91.03;99088.41;5103601;28;20016;-74
2021/05/15 06:28:12;;;;;;;0.22;0.22;;;;;;;9.86;90.86;99085.03;5103283;28;20472;-75
2021/05/15 06:30:38;;;;;;;0.25;0.25;;;;;;;9.90;90.90;99088.41;5119281;28;20036;-72
2021/05/15 06:33:03;;;;;;;0.20;0.20;;;;;;;9.89;90.88;99084.97;5103418;28;20111;-75
2021/05/15 06:35:29;;;;;;;0.30;0.30;;;;;;;9.92;90.66;99086.63;5103537;28;20027;-73
2021/05/15 06:37:54;;;;;;;0.30;0.30;;;;;;;9.92;90.94;99084.88;5119036;28;20467;-75
2021/05/15 06:40:20;;;;;;;0.30;0.30;;;;;;;9.98;90.74;99085.63;5103441;28;20046;-74
2021/05/15 06:42:45;;;;;;;0.30;0.30;;;;;;;9.95;90.90;99083.09;5103130;28;20032;-74
2021/05/15 06:45:11;;;;;;;0.30;0.30;;;;;;;10.05;90.80;99089.72;5103352;28;20032;-74
2021/05/15 06:47:37;;;;;;;0.30;0.30;;;;;;;9.99;90.76;99089.91;5103286;28;20024;-74
2021/05/15 06:50:04;;;;;;;0.22;0.22;;;;;;;10.02;90.57;99092.41;5103201;28;20052;-72
2021/05/15 06:52:30;;;;;;;0.30;0.30;;;;;;;9.94;90.49;99091.75;5103239;28;20532;-73
2021/05/15 06:54:55;;;;;;;0.20;0.20;;;;;;;9.95;90.53;99090.88;5103177;28;20055;-74
2021/05/15 06:57:21;;;;;;;0.20;0.20;;;;;;;9.89;90.69;99087.56;5102960;28;20064;-73
2021/05/15 06:59:47;;;;;;;0.20;0.20;;;;;;;9.90;90.41;99085.81;5103202;28;20172;-73
2021/05/15 07:02:12;;;;;;;0.20;0.20;;;;;;;9.89;90.45;99089.28;5103047;28;20034;-74
2021/05/15 07:04:38;;;;;;;0.30;0.30;;;;;;;9.86;90.59;99091.97;5103317;28;20032;-74
2021/05/15 07:07:04;;;;;;;0.30;0.30;;;;;;;9.89;90.39;99095.34;5122451;28;20024;-73
2021/05/15 07:09:29;;;;;;;0.20;0.20;;;;;;;9.87;90.59;99089.31;5107061;28;20024;-74
2021/05/15 07:11:54;;;;;;;0.20;0.20;;;;;;;9.90;90.58;99091.84;5106550;28;20024;-72
2021/05/15 07:14:20;;;;;;;0.20;0.20;;;;;;;9.98;90.57;99098.56;5107037;28;20040;-73
2021/05/15 07:16:45;;;;;;;0.20;0.20;;;;;;;9.96;90.47;99089.97;5106938;28;20039;-73
2021/05/15 07:19:11;;;;;;;0.30;0.30;;;;;;;9.99;90.48;99093.34;5107167;28;20020;-74
2021/05/15 07:21:37;;;;;;;0.28;0.28;;;;;;;9.92;90.56;99090.06;5106647;28;20016;-73
2021/05/15 07:24:03;;;;;;;0.30;0.30;;;;;;;9.96;90.41;99096.03;5106756;28;20487;-62
2021/05/15 07:26:29;;;;;;;0.30;0.30;;;;;;;9.97;90.52;99096.88;5121869;28;20039;-62
2021/05/15 07:28:54;;;;;;;3.45;3.15;;;;;;;10.03;90.59;99092.34;5106797;28;20016;-62
2021/05/15 07:31:20;;;;;;;0.20;0.20;;;;;;;10.03;90.34;99102.72;5106239;28;20516;-62
2021/05/15 07:33:45;;;;;;;0.20;0.20;;;;;;;10.04;90.35;99101.00;5106542;28;20432;-62
2021/05/15 07:36:10;;;;;;;0.30;0.30;;;;;;;10.09;90.48;99096.53;5106181;28;20023;-61
2021/05/15 07:38:37;;;;;;;0.30;0.30;;;;;;;10.13;90.46;99094.69;5106553;28;20035;-61
2021/05/15 07:41:04;;;;;;;0.20;0.20;;;;;;;10.15;90.47;99096.38;5106446;28;20027;-61
2021/05/15 07:43:30;;;;;;;0.20;0.20;;;;;;;10.18;90.55;99098.03;5106182;28;20097;-61
2021/05/15 07:45:57;;;;;;;0.30;0.30;;;;;;;10.15;90.35;99092.91;5106319;28;20024;-62
2021/05/15 07:48:38;;;;;;;0.20;0.20;;;;;;;10.23;90.43;99101.34;5106100;28;20024;-62
2021/05/15 07:51:05;;;;;;;0.20;0.20;;;;;;;10.22;90.28;99101.38;5105808;28;20059;-62
2021/05/15 07:53:31;;;;;;;0.55;0.55;;;;;;;10.17;89.95;99104.94;5106144;28;20028;-62
2021/05/15 07:55:56;;;;;;;0.20;0.20;;;;;;;10.14;89.66;99105.03;5106117;28;20016;-62
2021/05/15 07:58:22;;;;;;;0.30;0.30;;;;;;;10.16;90.05;99108.44;5105831;28;20023;-62
2021/05/15 08:00:47;;;;;;;0.30;0.30;;;;;;;10.20;90.20;99116.13;5105827;28;20119;-62
2021/05/15 08:03:13;;;;;;;0.20;0.20;;;;;;;10.19;89.67;99111.84;5106029;28;20049;-62
2021/05/15 08:05:38;;;;;;;0.30;0.30;;;;;;;10.22;89.89;99112.63;5121687;28;20055;-62
2021/05/15 08:08:05;;;;;;;0.30;0.30;;;;;;;10.21;89.76;99110.91;5105820;28;20016;-62
2021/05/15 08:10:31;;;;;;;0.30;0.30;;;;;;;10.20;90.13;99109.22;5106020;28;20031;-62
2021/05/15 08:12:57;;;;;;;0.20;0.20;;;;;;;10.20;89.84;99116.13;5105333;28;20024;-62
2021/05/15 08:15:23;;;;;;;0.25;0.25;;;;;;;10.19;89.92;99122.22;5105750;28;20054;-62
2021/05/15 08:17:48;;;;;;;0.30;0.30;;;;;;;10.17;89.65;99119.66;5105010;28;20024;-62
2021/05/15 08:20:14;;;;;;;0.30;0.30;;;;;;;10.20;89.71;99122.19;5105624;28;20040;-62
2021/05/15 08:22:39;;;;;;;0.20;0.20;;;;;;;10.20;89.89;99114.41;5105586;28;20016;-62
2021/05/15 08:25:07;;;;;;;0.20;0.20;;;;;;;10.26;89.86;99121.16;5105620;28;20038;-62
2021/05/15 08:27:35;;;;;;;0.20;0.20;;;;;;;10.28;90.22;99115.03;5105152;28;20028;-62
2021/05/15 08:30:01;;;;;;;0.30;0.30;;;;;;;10.29;89.56;99123.66;5105558;28;20098;-62
2021/05/15 08:32:26;;;;;;;0.20;0.20;;;;;;;10.19;89.70;99112.72;5105203;28;20525;-62
2021/05/15 08:34:51;;;;;;;0.22;0.22;;;;;;;10.16;89.49;99118.81;5105568;28;20020;-62
2021/05/15 08:37:17;;;;;;;0.30;0.30;;;;;;;10.19;89.79;99124.81;5105189;28;20020;-61
2021/05/15 08:39:42;;;;;;;0.20;0.20;;;;;;;10.10;89.97;99116.38;5105341;28;20035;-62
2021/05/15 08:42:08;;;;;;;0.22;0.22;;;;;;;10.14;89.77;99120.59;5105029;28;20042;-62
2021/05/15 08:44:36;;;;;;;0.22;0.22;;;;;;;10.16;89.42;99129.19;5105398;28;20016;-61
2021/05/15 08:47:02;;;;;;;0.30;0.30;;;;;;;10.17;89.97;99128.28;5105072;28;20049;-63
2021/05/15 08:49:29;;;;;;;0.30;0.30;;;;;;;10.19;89.67;99127.41;5105080;28;20062;-62
2021/05/15 08:51:55;;;;;;;0.20;0.20;;;;;;;10.13;90.02;99131.88;5104875;28;20518;-62
2021/05/15 08:54:21;;;;;;;0.30;0.30;;;;;;;10.14;89.63;99133.56;5105088;28;20091;-63
2021/05/15 08:56:49;;;;;;;1.48;0.82;;;;;;;10.17;90.05;99130.03;5104790;28;20034;-63
2021/05/15 08:59:14;;;;;;;0.20;0.20;;;;;;;10.17;89.70;99130.03;5105024;28;20020;-63
2021/05/15 09:01:44;;;;;;;1.30;1.30;;;;;;;10.11;89.62;99128.44;5104853;28;20047;-63
2021/05/15 09:04:10;;;;;;;0.30;0.30;;;;;;;10.13;89.85;99129.28;5104775;28;20028;-63
2021/05/15 09:06:40;;;;;;;0.20;0.20;;;;;;;10.15;89.92;99132.69;5104747;28;20022;-63
2021/05/15 09:09:05;;;;;;;0.60;0.40;;;;;;;10.15;89.77;99131.81;5104570;28;20030;-63
2021/05/15 09:11:30;;;;;;;0.22;0.22;;;;;;;10.17;89.69;99136.06;5104368;28;20056;-63
2021/05/15 09:13:56;;;;;;;0.30;0.30;;;;;;;10.16;89.47;99133.50;5104930;28;20032;-63
2021/05/15 09:16:21;;;;;;;0.20;0.20;;;;;;;10.08;89.19;99138.91;5104622;28;20020;-63
2021/05/15 09:18:47;;;;;;;3.90;1.55;;;;;;;10.01;89.31;99139.97;5104706;28;20028;-63
2021/05/15 09:21:21;;;;;;;0.20;0.20;;;;;;;10.02;89.66;99134.75;5104590;28;20023;-63
2021/05/15 09:23:49;;;;;;;0.20;0.20;;;;;;;10.06;89.69;99132.06;5104696;28;20121;-63
2021/05/15 09:26:17;;;;;;;0.28;0.28;;;;;;;9.99;89.27;99141.75;5120045;28;20031;-63
2021/05/15 09:28:45;;;;;;;0.55;0.55;;;;;;;9.95;89.21;99141.00;5103103;28;20388;-63
2021/05/15 09:31:14;;;;;;;0.30;0.30;;;;;;;9.94;89.56;99143.59;5104164;28;20035;-63
2021/05/15 09:33:42;;;;;;;0.20;0.20;;;;;;;9.95;89.42;99141.00;5104231;28;20084;-63
2021/05/15 09:36:16;;;;;;;0.20;0.20;;;;;;;10.05;89.54;99146.78;5119947;28;20023;-71
2021/05/15 09:38:42;;;;;;;0.30;0.30;;;;;;;10.10;89.97;99147.50;5104138;28;20031;-71
2021/05/15 09:41:07;;;;;;;0.30;0.30;;;;;;;10.15;89.89;99145.66;5104320;28;20016;-70
2021/05/15 09:43:32;;;;;;;0.20;0.20;;;;;;;10.06;89.47;99151.09;5103830;28;20057;-70
2021/05/15 09:45:58;;;;;;;0.30;0.30;;;;;;;10.03;89.41;99154.59;5103116;28;20111;-73
2021/05/15 09:48:35;;;;;;;0.30;0.30;;;;;;;10.00;89.41;99151.25;5104081;28;20083;-71
2021/05/15 09:51:17;;;;;;;0.22;0.22;;;;;;;9.96;89.35;99155.66;5104035;28;20040;-71
2021/05/15 09:53:44;;;;;;;0.30;0.30;;;;;;;9.99;89.26;99147.81;5119884;28;20098;-71
2021/05/15 09:56:09;;;;;;;0.30;0.30;;;;;;;10.04;89.81;99152.84;5104539;28;20028;-71
2021/05/15 09:58:36;;;;;;;0.20;0.20;;;;;;;10.06;89.92;99152.81;5104138;28;20063;-72
2021/05/15 10:01:03;;;;;;;0.30;0.30;;;;;;;10.04;89.51;99160.63;5104192;28;20044;-71
2021/05/15 10:03:33;;;;;;;0.30;0.30;;;;;;;10.01;89.48;99158.13;5104081;28;20091;-71
2021/05/15 10:06:08;;;;;;;0.20;0.20;;;;;;;10.02;89.79;99152.91;5104041;28;20032;-71
2021/05/15 10:08:38;;;;;;;0.30;0.30;;;;;;;10.01;90.01;99159.00;5103910;28;20501;-71
2021/05/15 10:11:04;;;;;;;0.30;0.30;;;;;;;9.98;90.21;99153.88;5119517;28;20110;-70
2021/05/15 10:13:30;;;;;;;0.30;0.30;;;;;;;9.94;89.86;99159.16;5103686;28;20036;-71
2021/05/15 10:15:56;;;;;;;0.30;0.30;;;;;;;9.97;89.76;99159.13;5104031;28;20024;-71
2021/05/15 10:18:21;;;;;;;0.30;0.30;;;;;;;9.97;90.12;99146.97;5103802;28;20038;-72
2021/05/15 10:20:47;;;;;;;0.28;0.28;;;;;;;10.05;90.21;99159.75;5104022;28;20028;-72
2021/05/15 10:23:43;;;;;;;0.30;0.30;;;;;;;10.16;89.97;99160.31;5103877;28;20031;-71
2021/05/15 10:26:14;;;;;;;9.68;3.30;;;;;;;10.26;90.15;99158.31;5101837;28;20117;-71
2021/05/15 10:28:40;;;;;;;0.40;0.40;;;;;;;10.29;89.61;99157.38;5119334;28;20124;-73
2021/05/15 10:31:14;;;;;;;0.30;0.30;;;;;;;10.26;89.75;99157.47;5119362;28;20027;-72
2021/05/15 10:33:41;;;;;;;0.40;0.40;;;;;;;10.20;89.60;99162.81;5103693;28;20028;-72
2021/05/15 10:36:19;;;;;;;0.30;0.30;;;;;;;10.15;89.56;99157.75;5103780;28;20051;-72
2021/05/15 10:38:45;;;;;;;0.30;0.30;;;;;;;10.00;89.10;99161.63;5103654;28;20031;-72
2021/05/15 10:41:14;;;;;;;0.30;0.30;;;;;;;9.91;88.96;99167.88;5106350;28;20145;-73
2021/05/15 10:43:41;;;;;;;0.30;0.30;;;;;;;9.85;89.29;99165.44;5107352;28;20024;-74
2021/05/15 10:46:28;;;;;;;0.20;0.20;;;;;;;9.79;89.15;99166.47;5107749;28;20027;-73
2021/05/15 10:49:01;;;;;;;0.30;0.30;;;;;;;9.82;89.58;99170.72;5107573;28;20061;-72
2021/05/15 10:51:38;;;;;;;0.30;0.30;;;;;;;9.83;89.52;99180.19;5105956;28;20040;-72
2021/05/15 10:54:04;;;;;;;0.28;0.28;;;;;;;9.75;89.38;99177.78;5107435;28;20502;-71
2021/05/15 10:56:30;;;;;;;0.30;0.30;;;;;;;9.71;89.24;99173.56;5107385;28;20040;-71
2021/05/15 10:59:10;;;;;;;0.30;0.30;;;;;;;9.65;88.95;99175.41;5122907;28;20015;-71
2021/05/15 11:01:48;;;;;;;0.20;0.20;;;;;;;9.62;89.04;99172.91;5107238;28;20020;-71
2021/05/15 11:04:53;;;;;;;0.30;0.30;;;;;;;9.55;88.98;99181.72;5107375;28;20030;-71
2021/05/15 11:07:39;;;;;;;0.30;0.30;;;;;;;9.48;89.01;99178.44;5106581;28;20193;-71
2021/05/15 11:10:07;;;;;;;0.30;0.30;;;;;;;9.47;89.53;99179.31;5107338;28;20024;-71
2021/05/15 11:12:41;;;;;;;0.30;0.30;;;;;;;9.44;89.30;99181.13;5106620;28;20064;-72
2021/05/15 11:15:10;;;;;;;0.20;0.20;;;;;;;9.45;89.25;99188.00;5107054;28;20023;-72
2021/05/15 11:17:35;;;;;;;0.45;0.45;;;;;;;9.44;89.17;99188.91;5106821;28;20027;-70
2021/05/15 11:20:12;;;;;;;0.20;0.20;;;;;;;9.38;89.31;99175.19;5107436;28;20021;-70
2021/05/15 11:22:40;;;;;;;0.20;0.20;;;;;;;9.54;89.65;99193.81;5107095;28;20016;-70
2021/05/15 11:25:27;;;;;;;0.30;0.30;;;;;;;9.62;89.68;99193.63;5106976;28;20028;-69
2021/05/15 11:27:57;;;;;;;0.30;0.30;;;;;;;9.67;89.49;99198.72;5106596;28;20035;-71
2021/05/15 11:30:36;;;;;;;0.30;0.30;;;;;;;9.65;89.38;99190.09;5122560;28;20021;-68
2021/05/15 11:33:11;;;;;;;0.30;0.30;;;;;;;9.61;89.25;99194.53;5106701;28;20020;-70
2021/05/15 11:35:44;;;;;;;0.30;0.30;;;;;;;9.65;89.60;99196.16;5106655;28;20031;-70
2021/05/15 11:38:15;;;;;;;0.30;0.30;;;;;;;9.65;89.64;99196.16;5106586;28;20084;-74
2021/05/15 11:40:52;;;;;;;0.20;0.20;;;;;;;9.65;89.61;99197.88;5106569;28;20028;-74